Time;durP1;ratioP1;P1;durP2;ratioP2;P2;SDS_P1;SDS_P2;PMS_P1;PMS_P2;Temp;Humidity;BMP_temperature;BMP_pressure;BME280_temperature;BME280_humidity;BME280_pressure;Samples;Min_cycle;Max_cycle;Signal;HPM_P1;HPM_P2
2021/03/25 00:00:56;;;;;;;36.00;16.48;;;;;;;-3.07;58.99;94769.28;4194326;28;20052;-71
2021/03/25 00:03:00;;;;;;;34.92;15.63;;;;;;;-2.96;58.41;94766.19;4180938;28;20053;-71
2021/03/25 00:05:04;;;;;;;34.40;14.98;;;;;;;-2.84;57.66;94765.53;4191397;28;20044;-72
2021/03/25 00:07:05;;;;;;;36.38;16.40;;;;;;;-3.02;58.51;94764.75;4194179;28;20048;-72
2021/03/25 00:09:29;;;;;;;33.75;15.88;;;;;;;-2.74;57.60;94771.06;4192670;28;20044;-73
2021/03/25 00:11:30;;;;;;;34.17;15.32;;;;;;;-2.50;57.48;94767.22;4193415;28;20041;-72
2021/03/25 00:13:32;;;;;;;38.00;16.08;;;;;;;-2.37;57.39;94764.03;4198475;28;20056;-71
2021/03/25 00:15:33;;;;;;;27.60;14.93;;;;;;;-2.23;57.30;94771.84;4198192;28;20052;-72
2021/03/25 00:17:34;;;;;;;33.70;14.45;;;;;;;-2.16;56.05;94773.19;4197028;28;20045;-72
2021/03/25 00:19:36;;;;;;;30.33;15.30;;;;;;;-2.13;56.53;94773.03;4230260;28;20065;-70
2021/03/25 00:21:38;;;;;;;32.72;15.40;;;;;;;-2.07;56.51;94777.81;4196783;28;20047;-71
2021/03/25 00:23:39;;;;;;;36.58;16.25;;;;;;;-2.10;56.47;94766.91;4195544;28;20146;-70
2021/03/25 00:25:41;;;;;;;31.35;15.25;;;;;;;-2.00;56.58;94767.22;4180241;28;20053;-71
2021/03/25 00:27:42;;;;;;;24.25;11.70;;;;;;;-1.91;55.36;94764.19;4195657;28;20138;-72
2021/03/25 00:29:44;;;;;;;22.70;10.50;;;;;;;-1.88;54.63;94767.41;4230388;28;20491;-72
2021/03/25 00:31:45;;;;;;;17.90;8.65;;;;;;;-1.89;54.00;94765.75;4197141;28;20052;-74
2021/03/25 00:33:47;;;;;;;19.25;9.60;;;;;;;-1.87;54.12;94766.50;4221767;28;20143;-71
2021/03/25 00:35:49;;;;;;;17.45;8.25;;;;;;;-1.90;53.79;94758.97;4216624;28;20080;-82
2021/03/25 00:37:51;;;;;;;15.85;7.70;;;;;;;-1.85;53.75;94761.28;4240873;28;20071;-83
2021/03/25 00:39:52;;;;;;;14.55;7.45;;;;;;;-1.83;53.57;94759.44;4239483;28;20070;-83
2021/03/25 00:41:53;;;;;;;16.38;7.07;;;;;;;-1.74;53.37;94763.25;4237333;28;20081;-82
2021/03/25 00:43:55;;;;;;;13.25;6.43;;;;;;;-1.67;53.12;94765.41;4237584;28;20065;-83
2021/03/25 00:45:56;;;;;;;12.90;7.00;;;;;;;-1.61;53.33;94763.41;4238373;28;20043;-81
2021/03/25 00:47:58;;;;;;;13.73;6.68;;;;;;;-1.64;53.22;94764.41;4238872;28;20078;-82
2021/03/25 00:49:59;;;;;;;14.27;6.32;;;;;;;-1.68;53.06;94762.94;4221017;28;20131;-84
2021/03/25 00:52:01;;;;;;;13.93;6.60;;;;;;;-1.70;52.97;94764.75;4228979;28;20047;-81
2021/03/25 00:54:03;;;;;;;9.98;5.00;;;;;;;-1.75;52.63;94757.31;4226622;28;20131;-83
2021/03/25 00:56:06;;;;;;;9.73;5.07;;;;;;;-1.79;52.86;94753.25;4218890;28;20423;-83
2021/03/25 00:58:08;;;;;;;9.65;4.82;;;;;;;-1.72;52.87;94758.88;4218367;28;20044;-84
2021/03/25 01:00:12;;;;;;;8.45;4.72;;;;;;;-1.69;52.64;94759.53;4219113;28;20545;-83
2021/03/25 01:02:13;;;;;;;8.27;4.43;;;;;;;-1.65;52.11;94758.47;4219232;28;20052;-84
2021/03/25 01:04:14;;;;;;;9.88;4.95;;;;;;;-1.70;52.28;94754.47;4228617;28;20052;-84
2021/03/25 01:06:16;;;;;;;11.50;4.53;;;;;;;-1.75;52.09;94749.59;4236586;28;20055;-83
2021/03/25 01:08:30;;;;;;;8.82;4.13;;;;;;;-1.77;52.33;94754.00;4232536;28;20043;-81
2021/03/25 01:10:44;;;;;;;7.47;3.90;;;;;;;-1.79;51.99;94753.25;4235677;28;20126;-82
2021/03/25 01:12:46;;;;;;;9.23;5.20;;;;;;;-1.75;52.09;94747.03;4226332;28;20506;-81
2021/03/25 01:14:47;;;;;;;8.85;4.68;;;;;;;-1.68;52.07;94750.09;4223952;28;20245;-84
2021/03/25 01:16:49;;;;;;;6.95;3.78;;;;;;;-1.70;51.61;94747.63;4229809;28;20048;-85
2021/03/25 01:18:51;;;;;;;7.85;3.83;;;;;;;-1.60;51.84;94747.09;4237620;28;20044;-83
2021/03/25 01:20:53;;;;;;;7.75;4.25;;;;;;;-1.57;51.46;94745.22;4235868;28;20445;-81
2021/03/25 01:22:54;;;;;;;7.28;3.42;;;;;;;-1.57;51.74;94737.50;4235634;28;20101;-82
2021/03/25 01:24:55;;;;;;;7.55;3.78;;;;;;;-1.58;51.15;94742.72;4199035;28;20059;-85
2021/03/25 01:26:57;;;;;;;6.20;3.58;;;;;;;-1.55;51.08;94745.09;4218539;28;20055;-84
2021/03/25 01:29:00;;;;;;;5.93;3.78;;;;;;;-1.50;50.82;94753.41;4235897;28;20043;-85
2021/03/25 01:31:01;;;;;;;8.35;3.90;;;;;;;-1.49;50.90;94749.91;4233474;28;20058;-83
2021/03/25 01:33:07;;;;;;;5.95;3.35;;;;;;;-1.52;50.55;94739.81;4241347;28;20051;-81
2021/03/25 01:35:10;;;;;;;6.32;3.85;;;;;;;-1.60;50.76;94742.78;4230014;28;20074;-82
2021/03/25 01:37:11;;;;;;;5.78;3.40;;;;;;;-1.55;50.54;94742.53;4235837;28;20047;-84
2021/03/25 01:39:12;;;;;;;10.00;3.78;;;;;;;-1.53;50.36;94740.72;4235658;28;20047;-82
2021/03/25 01:41:14;;;;;;;9.10;4.20;;;;;;;-1.49;50.33;94744.78;4237615;28;20105;-82
2021/03/25 01:43:27;;;;;;;6.60;3.85;;;;;;;-1.53;50.42;94743.28;4236561;28;20089;-82
2021/03/25 01:45:28;;;;;;;6.50;3.83;;;;;;;-1.50;50.33;94738.81;4223375;28;20081;-83
2021/03/25 01:47:30;;;;;;;9.98;3.60;;;;;;;-1.52;50.45;94738.06;4220098;28;20078;-83
2021/03/25 01:49:32;;;;;;;6.32;3.17;;;;;;;-1.54;50.23;94734.75;4223507;28;20096;-82
2021/03/25 01:51:38;;;;;;;7.18;3.67;;;;;;;-1.47;50.39;94737.81;4229767;28;20497;-81
2021/03/25 01:54:01;;;;;;;5.78;3.42;;;;;;;-1.43;50.42;94746.19;4235504;28;20479;-83
2021/03/25 01:56:35;;;;;;;5.32;3.17;;;;;;;-1.47;50.62;94735.22;4236373;28;20056;-83
2021/03/25 01:58:50;;;;;;;5.00;3.08;;;;;;;-1.42;50.62;94748.66;4217902;28;20048;-82
2021/03/25 02:00:54;;;;;;;5.50;3.25;;;;;;;-1.42;50.24;94753.78;4207166;28;20494;-83
2021/03/25 02:03:19;;;;;;;8.23;3.35;;;;;;;-1.35;50.73;94757.69;4230396;28;20422;-82
2021/03/25 02:05:40;;;;;;;9.85;3.90;;;;;;;-1.23;50.74;94758.72;4211632;28;20052;-83
2021/03/25 02:08:17;;;;;;;5.55;3.13;;;;;;;-1.22;50.42;94757.81;4222244;28;20043;-80
2021/03/25 02:10:25;;;;;;;6.22;3.40;;;;;;;-1.25;50.14;94758.84;4199747;28;20051;-81
2021/03/25 02:12:48;;;;;;;5.28;3.55;;;;;;;-1.20;50.18;94758.56;4204115;28;20083;-83
2021/03/25 02:15:13;;;;;;;5.60;3.55;;;;;;;-1.23;50.08;94769.00;4237385;28;20055;-81
2021/03/25 02:17:27;;;;;;;6.43;3.65;;;;;;;-1.31;50.01;94769.44;4236245;28;20067;-83
2021/03/25 02:19:53;;;;;;;5.30;3.50;;;;;;;-1.41;50.42;94776.00;4216460;28;20051;-81
2021/03/25 02:22:07;;;;;;;5.35;3.25;;;;;;;-1.47;50.25;94774.59;4200512;28;20293;-82
2021/03/25 02:24:17;;;;;;;;;;;;;;;-1.53;50.42;94772.38;4234313;28;20147;-82
2021/03/25 02:26:29;;;;;;;6.47;3.33;;;;;;;-1.60;50.53;94771.06;4227108;28;19920;-80
2021/03/25 02:29:00;;;;;;;6.43;3.30;;;;;;;-1.54;51.09;94772.47;4216101;28;20048;-84
2021/03/25 02:31:45;;;;;;;5.78;3.47;;;;;;;-1.45;50.29;94777.09;4214307;28;20580;-81
2021/03/25 02:33:52;;;;;;;6.13;3.53;;;;;;;-1.48;51.00;94787.56;4221306;28;20055;-70
2021/03/25 02:35:58;;;;;;;6.95;3.67;;;;;;;-1.58;51.18;94782.06;4225079;28;20044;-71
2021/03/25 02:38:05;;;;;;;6.88;3.55;;;;;;;-1.76;52.00;94785.66;4210576;28;20106;-71
2021/03/25 02:41:08;;;;;;;6.75;3.65;;;;;;;-1.79;51.87;94781.50;4208283;28;20155;-69
2021/03/25 02:43:22;;;;;;;6.32;3.47;;;;;;;-1.79;51.98;94788.38;4187563;28;20050;-68
2021/03/25 02:45:29;;;;;;;6.07;3.47;;;;;;;-1.80;51.85;94790.13;4210229;28;20491;-70
2021/03/25 02:47:31;;;;;;;5.95;3.15;;;;;;;-1.77;52.24;94782.22;4228453;28;20047;-70
2021/03/25 02:49:38;;;;;;;5.90;3.05;;;;;;;-1.74;52.52;94784.66;4209079;28;20455;-71
2021/03/25 02:51:51;;;;;;;6.03;3.30;;;;;;;-1.75;52.58;94782.16;4215821;28;20048;-71
2021/03/25 02:53:53;;;;;;;6.70;3.17;;;;;;;-1.75;52.34;94789.88;4201323;28;20075;-70
2021/03/25 02:55:59;;;;;;;7.93;3.53;;;;;;;-1.79;52.60;94794.34;4221613;28;20150;-71
2021/03/25 02:58:08;;;;;;;6.50;3.30;;;;;;;-1.73;51.79;94794.00;4239582;27;20044;-71
2021/03/25 03:00:13;;;;;;;6.30;3.30;;;;;;;-1.66;52.24;94794.50;4210789;28;20501;-71
2021/03/25 03:02:21;;;;;;;6.15;3.70;;;;;;;-1.60;52.17;94804.44;4202379;28;20469;-71
2021/03/25 03:04:29;;;;;;;5.70;3.30;;;;;;;-1.68;52.02;94804.03;4212377;28;20210;-69
2021/03/25 03:06:34;;;;;;;5.82;3.38;;;;;;;-1.67;52.12;94806.53;4209812;28;20467;-68
2021/03/25 03:08:43;;;;;;;5.53;3.63;;;;;;;-1.65;51.85;94809.84;4227992;28;20078;-70
2021/03/25 03:11:02;;;;;;;6.35;3.10;;;;;;;-1.60;51.90;94801.06;4210258;28;20125;-71
2021/03/25 03:13:05;;;;;;;5.97;3.53;;;;;;;-1.57;51.93;94812.00;4210600;28;20052;-70
2021/03/25 03:15:07;;;;;;;7.28;3.60;;;;;;;-1.58;52.08;94809.50;4210166;28;20075;-69
2021/03/25 03:17:13;;;;;;;7.78;3.80;;;;;;;-1.56;52.08;94815.41;4211081;28;20145;-72
2021/03/25 03:19:28;;;;;;;7.22;3.95;;;;;;;-1.58;51.67;94815.47;4227416;28;20521;-72
2021/03/25 03:21:36;;;;;;;5.97;3.20;;;;;;;-1.51;51.60;94813.41;4210565;28;20059;-70
2021/03/25 03:23:38;;;;;;;7.82;3.55;;;;;;;-1.52;51.69;94824.59;4208912;28;20109;-71
2021/03/25 03:25:39;;;;;;;6.53;3.55;;;;;;;-1.52;51.82;94824.59;4209618;28;20531;-71
2021/03/25 03:27:44;;;;;;;5.18;3.53;;;;;;;-1.50;51.82;94823.59;4217471;28;20051;-70
2021/03/25 03:29:47;;;;;;;6.07;3.70;;;;;;;-1.44;52.33;94827.59;4206259;28;20044;-69
2021/03/25 03:31:53;;;;;;;6.70;3.33;;;;;;;-1.40;51.56;94831.63;4222753;28;20053;-70
2021/03/25 03:34:00;;;;;;;5.95;3.38;;;;;;;-1.43;51.76;94825.84;4197335;28;20068;-70
2021/03/25 03:36:06;;;;;;;6.78;3.50;;;;;;;-1.44;52.44;94832.72;4226752;28;20056;-71
2021/03/25 03:38:38;;;;;;;5.25;3.42;;;;;;;-1.53;52.21;94828.06;4227523;28;20554;-72
2021/03/25 03:40:42;;;;;;;6.90;3.55;;;;;;;-1.47;52.20;94831.13;4176200;28;20522;-71
2021/03/25 03:42:45;;;;;;;6.20;3.40;;;;;;;-1.51;52.45;94831.38;4212627;28;20044;-84
2021/03/25 03:44:48;;;;;;;7.38;3.25;;;;;;;-1.53;52.92;94834.03;4215759;28;20090;-81
2021/03/25 03:46:50;;;;;;;6.30;3.42;;;;;;;-1.45;52.67;94833.63;4214583;28;20066;-82
2021/03/25 03:49:01;;;;;;;5.68;3.50;;;;;;;-1.39;52.55;94830.72;4214953;28;20051;-84
2021/03/25 03:51:04;;;;;;;6.65;3.70;;;;;;;-1.39;52.23;94835.88;4215805;28;20051;-82
2021/03/25 03:53:06;;;;;;;7.35;3.42;;;;;;;-1.34;52.58;94833.84;4217713;28;20051;-82
2021/03/25 03:55:11;;;;;;;6.00;3.45;;;;;;;-1.33;52.57;94832.97;4219134;28;20052;-81
2021/03/25 03:57:39;;;;;;;5.97;3.20;;;;;;;-1.33;52.53;94835.53;4198287;28;20060;-83
2021/03/25 03:59:58;;;;;;;5.43;3.15;;;;;;;-1.33;52.65;94834.72;4205853;28;20043;-83
2021/03/25 04:02:28;;;;;;;5.82;3.40;;;;;;;-1.42;52.78;94838.56;4242181;27;20051;-83
2021/03/25 04:04:35;;;;;;;6.50;3.55;;;;;;;-1.42;52.96;94843.72;4206656;28;20056;-83
2021/03/25 04:06:50;;;;;;;5.60;3.20;;;;;;;-1.37;53.31;94843.50;4214743;28;20478;-83
2021/03/25 04:09:07;;;;;;;5.18;3.50;;;;;;;-1.34;53.10;94851.03;4210815;28;20048;-81
2021/03/25 04:11:25;;;;;;;5.45;3.00;;;;;;;-1.34;52.61;94848.47;4224715;28;20052;-85
2021/03/25 04:13:33;;;;;;;7.15;3.15;;;;;;;-1.31;52.94;94843.16;4208197;28;20123;-82
2021/03/25 04:15:38;;;;;;;7.60;3.47;;;;;;;-1.34;52.94;94843.31;4233082;28;20065;-84
2021/03/25 04:17:43;;;;;;;6.22;3.50;;;;;;;-1.29;53.22;94849.03;4218078;28;20044;-84
2021/03/25 04:19:48;;;;;;;6.63;3.90;;;;;;;-1.24;53.02;94855.59;4233799;28;20044;-83
2021/03/25 04:21:52;;;;;;;8.18;4.32;;;;;;;-1.21;53.38;94864.03;4230471;28;20048;-82
2021/03/25 04:23:54;;;;;;;6.25;3.65;;;;;;;-1.16;53.15;94851.75;4218964;28;20543;-81
2021/03/25 04:26:06;;;;;;;9.10;4.40;;;;;;;-1.20;53.22;94858.00;4215974;28;20535;-82
2021/03/25 04:28:24;;;;;;;12.35;4.75;;;;;;;-1.29;53.77;94862.72;4245666;28;20514;-83
2021/03/25 04:30:29;;;;;;;7.55;4.15;;;;;;;-1.38;53.88;94867.53;4199411;28;20044;-82
2021/03/25 04:32:30;;;;;;;11.25;4.63;;;;;;;-1.55;53.80;94865.84;4227607;28;20050;-70
2021/03/25 04:34:32;;;;;;;10.68;4.35;;;;;;;-1.77;54.56;94869.56;4228210;28;20142;-70
2021/03/25 04:36:40;;;;;;;8.77;4.53;;;;;;;-2.02;55.07;94877.72;4192745;28;20115;-70
2021/03/25 04:38:42;;;;;;;11.40;5.38;;;;;;;-2.30;56.03;94879.13;4222466;28;20500;-69
2021/03/25 04:40:44;;;;;;;9.85;5.40;;;;;;;-2.63;57.37;94885.91;4194264;28;20392;-69
2021/03/25 04:42:47;;;;;;;9.80;5.10;;;;;;;-2.72;57.44;94882.06;4192294;28;20087;-70
2021/03/25 04:44:51;;;;;;;10.65;5.63;;;;;;;-2.58;58.12;94889.94;4183279;28;20607;-71
2021/03/25 04:46:52;;;;;;;10.07;5.47;;;;;;;-2.67;57.97;94890.34;4227890;28;20055;-70
2021/03/25 04:48:56;;;;;;;12.45;5.28;;;;;;;-2.43;57.77;94890.06;4228329;28;20048;-84
2021/03/25 04:51:14;;;;;;;10.43;4.90;;;;;;;-2.17;56.68;94894.75;4218216;28;20123;-85
2021/03/25 04:53:24;;;;;;;8.98;5.07;;;;;;;-1.98;56.13;94896.34;4224897;28;20051;-83
2021/03/25 04:55:25;;;;;;;8.75;5.43;;;;;;;-2.02;56.29;94899.97;4222276;28;20048;-83
2021/03/25 04:57:39;;;;;;;11.75;5.95;;;;;;;-2.11;56.40;94904.69;4232345;28;20100;-83
2021/03/25 04:59:40;;;;;;;10.88;5.47;;;;;;;-2.13;56.67;94910.78;4218677;28;20044;-82
2021/03/25 05:01:41;;;;;;;13.68;6.50;;;;;;;-2.19;56.70;94911.94;4219247;28;20130;-82
2021/03/25 05:03:43;;;;;;;10.45;6.13;;;;;;;-2.32;57.49;94914.28;4210678;28;20052;-87
2021/03/25 05:05:44;;;;;;;11.18;5.53;;;;;;;-2.13;57.01;94916.78;4223920;28;20060;-84
2021/03/25 05:07:50;;;;;;;11.00;5.75;;;;;;;-1.97;56.57;94921.13;4236870;28;20051;-86
2021/03/25 05:09:52;;;;;;;15.70;6.07;;;;;;;-2.08;56.66;94909.66;4222449;28;20043;-82
2021/03/25 05:11:54;;;;;;;10.40;5.80;;;;;;;-1.90;55.99;94917.34;4223027;28;20074;-83
2021/03/25 05:13:58;;;;;;;10.73;5.63;;;;;;;-1.76;55.51;94927.72;4220508;28;20152;-85
2021/03/25 05:16:03;;;;;;;;;;;;;;;-1.62;55.31;94924.44;4238216;28;20051;-83
2021/03/25 05:18:23;;;;;;;12.00;6.05;;;;;;;-1.47;55.05;94928.78;4218988;28;19924;-84
2021/03/25 05:20:40;;;;;;;10.27;5.28;;;;;;;-1.37;54.49;94926.56;4220762;28;20443;-84
2021/03/25 05:22:53;;;;;;;12.52;8.30;;;;;;;-1.33;54.78;94922.91;4200971;28;20151;-83
2021/03/25 05:25:11;;;;;;;12.05;6.85;;;;;;;-1.54;55.21;94921.47;4216408;28;20399;-82
2021/03/25 05:27:21;;;;;;;15.00;6.97;;;;;;;-1.53;55.50;94923.94;4219393;28;20111;-81
2021/03/25 05:29:23;;;;;;;11.15;6.70;;;;;;;-1.47;55.36;94928.78;4213057;28;20097;-70
2021/03/25 05:31:29;;;;;;;12.48;6.93;;;;;;;-1.36;54.83;94920.50;4215155;28;20060;-71
2021/03/25 05:33:31;;;;;;;11.35;7.90;;;;;;;-1.22;55.10;94929.22;4211349;28;20056;-70
2021/03/25 05:35:40;;;;;;;18.77;8.20;;;;;;;-1.16;54.93;94921.16;4210978;28;20064;-69
2021/03/25 05:37:43;;;;;;;15.13;9.20;;;;;;;-1.13;54.59;94921.00;4211603;28;20070;-71
2021/03/25 05:39:45;;;;;;;15.25;8.57;;;;;;;-1.11;54.73;94922.59;4227947;28;20058;-71
2021/03/25 05:42:12;;;;;;;17.83;9.15;;;;;;;-1.03;54.41;94929.91;4212397;28;20130;-70
2021/03/25 05:44:32;;;;;;;14.23;8.13;;;;;;;-0.97;54.55;94921.81;4211099;28;20071;-70
2021/03/25 05:46:52;;;;;;;13.73;8.20;;;;;;;-0.93;54.28;94930.19;4232324;27;20054;-70
2021/03/25 05:49:19;;;;;;;15.32;8.48;;;;;;;-0.85;54.32;94928.88;4229607;28;20052;-70
2021/03/25 05:51:41;;;;;;;13.57;8.35;;;;;;;-0.92;54.72;94932.69;4209705;28;20096;-72
2021/03/25 05:53:55;;;;;;;15.98;9.25;;;;;;;-0.96;54.90;94933.78;4209836;28;20500;-71
2021/03/25 05:56:15;;;;;;;17.00;9.50;;;;;;;-1.19;55.82;94941.91;4210196;28;20099;-71
2021/03/25 05:58:17;;;;;;;19.88;11.80;;;;;;;-1.76;57.68;94943.16;4211747;28;20048;-70
2021/03/25 06:00:31;;;;;;;17.63;10.45;;;;;;;-1.82;58.57;94950.34;4232127;27;20061;-71
2021/03/25 06:02:43;;;;;;;18.50;11.20;;;;;;;-1.55;57.82;94945.50;4194708;28;20162;-69
2021/03/25 06:04:45;;;;;;;26.50;16.13;;;;;;;-1.62;59.19;94944.16;4207735;28;20071;-86
2021/03/25 06:06:51;;;;;;;34.17;18.95;;;;;;;-1.88;60.35;94948.91;4242594;27;20347;-85
2021/03/25 06:09:02;;;;;;;31.27;19.40;;;;;;;-1.41;59.03;94945.63;4215224;28;20113;-84
2021/03/25 06:11:33;;;;;;;48.53;23.55;;;;;;;-1.59;59.64;94951.69;4210383;28;20102;-69
2021/03/25 06:13:37;;;;;;;43.30;24.63;;;;;;;-1.71;60.13;94948.88;4223152;27;20266;-70
2021/03/25 06:16:06;;;;;;;40.03;22.67;;;;;;;-1.84;60.44;94947.84;4232015;27;20051;-71
2021/03/25 06:18:58;;;;;;;55.72;27.30;;;;;;;-1.83;60.73;94959.75;4226496;28;20044;-69
2021/03/25 06:21:18;;;;;;;64.03;29.50;;;;;;;-1.71;60.97;94948.03;4194146;28;20052;-84
2021/03/25 06:23:47;;;;;;;68.03;34.92;;;;;;;-1.62;60.68;94954.44;4233491;28;20490;-86
2021/03/25 06:25:48;;;;;;;52.60;27.95;;;;;;;-1.38;59.95;94950.56;4232434;28;20458;-84
2021/03/25 06:28:34;;;;;;;45.25;26.23;;;;;;;-1.57;60.73;94957.59;4233979;28;20057;-83
2021/03/25 06:30:42;;;;;;;32.60;19.20;;;;;;;-1.56;60.34;94954.94;4174755;28;20048;-84
2021/03/25 06:32:51;;;;;;;30.25;16.70;;;;;;;-1.44;60.27;94953.50;4234358;28;20055;-86
2021/03/25 06:35:00;;;;;;;16.48;9.45;;;;;;;-1.10;58.51;94959.41;4236915;28;20051;-84
2021/03/25 06:37:33;;;;;;;14.50;8.73;;;;;;;-0.67;57.53;94950.19;4217838;28;20048;-84
2021/03/25 06:39:41;;;;;;;16.25;8.52;;;;;;;-0.53;56.69;94953.75;4194359;28;20489;-83
2021/03/25 06:41:52;;;;;;;16.48;7.90;;;;;;;-0.25;56.26;94953.81;4217721;28;20044;-84
2021/03/25 06:44:01;;;;;;;15.30;8.60;;;;;;;-0.03;55.41;94956.00;4217144;28;20491;-86
2021/03/25 06:46:08;;;;;;;16.20;8.30;;;;;;;-0.29;56.42;94959.25;4207503;28;20059;-86
2021/03/25 06:48:30;;;;;;;14.38;7.68;;;;;;;-0.13;55.60;94959.19;4198540;28;20072;-83
2021/03/25 06:50:35;;;;;;;12.52;6.03;;;;;;;0.03;55.56;94959.16;4236743;28;20051;-85
2021/03/25 06:52:37;;;;;;;8.85;5.72;;;;;;;0.13;54.61;94962.81;4216282;28;20047;-83
2021/03/25 06:54:39;;;;;;;10.85;5.35;;;;;;;0.36;53.76;94970.03;4235224;28;20054;-83
2021/03/25 06:56:43;;;;;;;8.75;5.88;;;;;;;0.54;52.75;94967.31;4235844;28;20100;-86
2021/03/25 06:58:50;;;;;;;9.63;5.05;;;;;;;0.60;52.23;94966.91;4199651;28;20049;-84
2021/03/25 07:01:06;;;;;;;9.13;5.65;;;;;;;0.86;51.71;94973.09;4237168;28;20586;-84
2021/03/25 07:03:15;;;;;;;12.77;6.55;;;;;;;1.10;51.46;94964.75;4194675;28;20192;-83
2021/03/25 07:05:23;;;;;;;10.93;6.47;;;;;;;1.21;52.17;94968.34;4220680;28;20050;-85
2021/03/25 07:07:34;;;;;;;15.68;8.13;;;;;;;1.14;52.90;94963.63;4231296;28;20093;-85
2021/03/25 07:09:39;;;;;;;16.88;7.13;;;;;;;1.19;51.94;94969.34;4205823;28;20052;-85
2021/03/25 07:11:41;;;;;;;11.48;6.47;;;;;;;1.02;51.67;94965.25;4236559;28;20479;-83
2021/03/25 07:13:58;;;;;;;12.15;6.13;;;;;;;0.87;52.04;94968.75;4234105;27;20061;-85
2021/03/25 07:15:59;;;;;;;10.18;6.50;;;;;;;0.36;53.27;94970.03;4234180;28;20051;-87
2021/03/25 07:18:06;;;;;;;10.82;6.15;;;;;;;-0.09;53.69;94974.38;4232785;28;20055;-84
2021/03/25 07:20:29;;;;;;;12.50;6.85;;;;;;;-0.21;54.51;94972.50;4215464;28;20040;-84
2021/03/25 07:22:32;;;;;;;12.65;6.85;;;;;;;-0.21;54.53;94969.94;4204965;28;20131;-83
2021/03/25 07:24:36;;;;;;;9.20;5.85;;;;;;;-0.26;54.08;94977.94;4220454;28;20105;-85
2021/03/25 07:26:47;;;;;;;12.32;5.97;;;;;;;-0.59;53.47;94975.47;4227811;28;20055;-85
2021/03/25 07:29:04;;;;;;;9.18;5.32;;;;;;;-0.59;54.45;94980.63;4231528;28;20051;-85
2021/03/25 07:31:06;;;;;;;15.15;5.82;;;;;;;-0.13;53.71;94972.06;4228971;28;20062;-85
2021/03/25 07:33:12;;;;;;;11.20;6.20;;;;;;;0.05;52.28;94973.59;4247920;28;20051;-86
2021/03/25 07:35:27;;;;;;;10.77;5.82;;;;;;;0.02;53.07;94981.47;4230189;28;20070;-86
2021/03/25 07:37:37;;;;;;;9.93;6.22;;;;;;;0.42;52.02;94973.19;4207892;28;20048;-85
2021/03/25 07:39:48;;;;;;;10.77;6.38;;;;;;;0.72;50.79;94981.66;4209868;28;20036;-84
2021/03/25 07:41:52;;;;;;;8.82;6.47;;;;;;;1.11;50.07;94969.81;4219518;28;20052;-85
2021/03/25 07:44:04;;;;;;;12.55;6.80;;;;;;;1.43;49.27;94978.13;4223353;28;20052;-86
2021/03/25 07:46:08;;;;;;;8.95;5.75;;;;;;;1.62;48.68;94970.06;4212930;28;20067;-84
2021/03/25 07:48:25;;;;;;;13.25;7.10;;;;;;;1.93;48.97;94975.81;4222321;28;20048;-82
2021/03/25 07:50:32;;;;;;;10.18;6.03;;;;;;;2.09;47.91;94960.16;4206879;28;20108;-84
2021/03/25 07:52:34;;;;;;;9.70;5.80;;;;;;;2.01;48.56;94973.56;4218539;28;20048;-83
2021/03/25 07:54:39;;;;;;;10.07;6.28;;;;;;;2.08;48.15;94978.34;4218766;28;20592;-86
2021/03/25 07:56:58;;;;;;;10.00;5.97;;;;;;;2.11;47.68;94970.38;4219345;28;20050;-83
2021/03/25 07:58:59;;;;;;;10.02;6.93;;;;;;;2.24;47.94;94974.63;4217479;28;20131;-84
2021/03/25 08:01:18;;;;;;;9.27;5.57;;;;;;;2.44;46.05;94959.56;4234065;28;20062;-85
2021/03/25 08:03:22;;;;;;;8.65;5.65;;;;;;;2.50;45.21;94971.25;4235990;27;20047;-85
2021/03/25 08:05:31;;;;;;;10.48;6.22;;;;;;;1.99;46.76;94969.44;4245469;27;20048;-84
2021/03/25 08:07:36;;;;;;;9.40;5.13;;;;;;;1.79;46.70;94968.97;4225345;28;20054;-83
2021/03/25 08:09:49;;;;;;;9.45;4.50;;;;;;;1.58;46.69;94965.19;4237373;28;20158;-84
2021/03/25 08:12:01;;;;;;;6.45;4.25;;;;;;;1.95;45.76;94962.81;4206113;28;20111;-84
2021/03/25 08:14:16;;;;;;;8.13;4.18;;;;;;;2.30;45.08;94964.81;4235161;28;20062;-83
2021/03/25 08:16:18;;;;;;;10.70;5.28;;;;;;;2.42;44.38;94964.00;4218054;28;20048;-84
2021/03/25 08:18:56;;;;;;;8.85;4.53;;;;;;;1.95;43.91;94963.63;4215238;28;20044;-86
2021/03/25 08:21:32;;;;;;;8.30;5.28;;;;;;;2.08;44.73;94957.66;4234891;28;20087;-84
2021/03/25 08:23:36;;;;;;;;;;;;;;;2.36;43.49;94949.72;4233525;28;20108;-85
2021/03/25 08:25:47;;;;;;;6.53;3.90;;;;;;;2.51;42.06;94949.63;4234928;28;20364;-86
2021/03/25 08:28:00;;;;;;;8.00;3.72;;;;;;;2.60;41.88;94946.41;4217535;28;20119;-84
2021/03/25 08:30:51;;;;;;;7.38;3.90;;;;;;;2.91;41.56;94952.06;4216617;28;20044;-84
2021/03/25 08:33:11;;;;;;;5.88;3.85;;;;;;;3.17;41.56;94955.44;4170762;28;20466;-85
2021/03/25 08:35:18;;;;;;;6.38;4.03;;;;;;;3.44;40.66;94948.31;4204667;28;20064;-85
2021/03/25 08:37:31;;;;;;;5.70;3.97;;;;;;;3.65;39.65;94943.31;4222197;28;20433;-85
2021/03/25 08:39:36;;;;;;;9.60;4.20;;;;;;;3.90;39.94;94947.56;4210475;28;20044;-85
2021/03/25 08:41:46;;;;;;;18.23;8.57;;;;;;;2.69;40.94;94942.34;4231314;28;20055;-83
2021/03/25 08:43:55;;;;;;;10.13;5.38;;;;;;;2.80;41.72;94947.63;4218490;28;20062;-87
2021/03/25 08:46:09;;;;;;;6.68;4.38;;;;;;;3.15;40.79;94945.16;4204537;28;20052;-84
2021/03/25 08:48:18;;;;;;;7.50;4.75;;;;;;;3.35;40.46;94935.16;4238314;28;20070;-87
2021/03/25 08:50:29;;;;;;;6.97;4.82;;;;;;;3.40;39.84;94935.66;4220488;28;20055;-85
2021/03/25 08:52:36;;;;;;;9.55;5.88;;;;;;;3.56;39.77;94931.03;4216832;28;20564;-69
2021/03/25 08:54:49;;;;;;;8.98;4.93;;;;;;;3.79;39.31;94933.75;4210522;28;20048;-72
2021/03/25 08:56:57;;;;;;;9.60;4.75;;;;;;;3.90;39.05;94934.59;4230507;28;20066;-71
2021/03/25 08:59:00;;;;;;;5.93;4.80;;;;;;;4.04;38.91;94935.34;4230092;28;20484;-71
2021/03/25 09:01:08;;;;;;;6.82;4.50;;;;;;;4.01;38.51;94927.78;4182421;28;20056;-71
2021/03/25 09:03:16;;;;;;;6.32;4.25;;;;;;;4.11;38.71;94928.78;4199611;28;20111;-72
2021/03/25 09:05:29;;;;;;;16.27;10.13;;;;;;;4.28;39.94;94936.13;4230138;28;20062;-73
2021/03/25 09:07:32;;;;;;;7.88;4.53;;;;;;;4.36;39.11;94935.53;4198224;28;20048;-73
2021/03/25 09:09:48;;;;;;;7.20;4.60;;;;;;;4.54;38.82;94938.53;4207945;28;20048;-72
2021/03/25 09:11:49;;;;;;;9.60;4.47;;;;;;;4.57;38.50;94934.84;4229374;28;20522;-72
2021/03/25 09:13:56;;;;;;;9.57;5.18;;;;;;;4.56;36.75;94938.38;4230446;28;20482;-71
2021/03/25 09:16:05;;;;;;;7.18;4.60;;;;;;;4.62;37.79;94936.13;4218307;28;20050;-71
2021/03/25 09:18:09;;;;;;;8.73;5.35;;;;;;;4.54;37.08;94942.84;4195197;28;20492;-72
2021/03/25 09:20:13;;;;;;;6.50;4.80;;;;;;;4.32;37.34;94944.47;4212117;28;20055;-72
2021/03/25 09:22:34;;;;;;;7.72;4.40;;;;;;;4.45;36.81;94947.81;4195095;28;20127;-71
2021/03/25 09:25:31;;;;;;;7.38;4.72;;;;;;;4.68;37.54;94938.28;4228463;28;20047;-72
2021/03/25 09:27:51;;;;;;;6.05;4.30;;;;;;;4.68;36.74;94938.28;4178510;28;20045;-72
2021/03/25 09:30:01;;;;;;;9.15;4.65;;;;;;;4.79;37.00;94939.22;4211793;28;20112;-73
2021/03/25 09:32:03;;;;;;;9.48;4.32;;;;;;;4.69;37.03;94945.13;4215208;28;20055;-72
2021/03/25 09:34:10;;;;;;;9.93;4.25;;;;;;;3.51;37.64;94940.91;4227120;28;20048;-73
2021/03/25 09:36:18;;;;;;;9.45;5.43;;;;;;;3.01;39.61;94953.91;4229544;28;20153;-72
2021/03/25 09:38:29;;;;;;;10.02;5.57;;;;;;;3.22;39.70;94951.56;4229296;28;20050;-73
2021/03/25 09:40:50;;;;;;;10.25;5.82;;;;;;;2.56;40.82;94956.16;4227155;28;20051;-72
2021/03/25 09:43:13;;;;;;;8.00;5.32;;;;;;;2.77;40.97;94947.84;4229589;28;20044;-71
2021/03/25 09:45:31;;;;;;;9.38;4.97;;;;;;;2.82;40.71;94948.38;4218157;28;20082;-71
2021/03/25 09:47:36;;;;;;;8.15;5.75;;;;;;;3.02;40.74;94954.75;4221322;28;20056;-73
2021/03/25 09:49:45;;;;;;;8.82;5.57;;;;;;;3.09;40.11;94955.94;4217812;28;20119;-71
2021/03/25 09:51:47;;;;;;;9.25;5.25;;;;;;;2.97;40.61;94959.38;4211669;28;20060;-72
2021/03/25 09:53:50;;;;;;;13.52;6.03;;;;;;;2.91;40.54;94947.72;4192695;28;20056;-72
2021/03/25 09:56:22;;;;;;;9.75;5.35;;;;;;;2.98;40.67;94950.69;4208616;28;20105;-73
2021/03/25 09:58:45;;;;;;;7.32;4.95;;;;;;;3.11;39.57;94958.44;4205932;28;20044;-71
2021/03/25 10:00:52;;;;;;;9.25;5.82;;;;;;;3.43;40.28;94943.22;4223768;28;20481;-71
2021/03/25 10:02:57;;;;;;;10.10;5.30;;;;;;;3.86;39.82;94959.06;4228436;28;20150;-72
2021/03/25 10:05:36;;;;;;;9.25;5.63;;;;;;;3.78;38.83;94947.63;4211524;28;20047;-71
2021/03/25 10:07:37;;;;;;;12.65;5.38;;;;;;;3.36;39.95;94960.16;4228904;28;20135;-72
2021/03/25 10:09:54;;;;;;;9.07;5.30;;;;;;;3.51;39.70;94966.81;4212520;28;20047;-71